Time;durP1;ratioP1;P1;durP2;ratioP2;P2;SDS_P1;SDS_P2;PMS_P1;PMS_P2;Temp;Humidity;BMP_temperature;BMP_pressure;BME280_temperature;BME280_humidity;BME280_pressure;Samples;Min_cycle;Max_cycle;Signal;HPM_P1;HPM_P2
2021/03/28 00:01:46;;;;;;;16.00;3.42;;;;;;;;;;5002892;28;20017;-67
2021/03/28 00:04:14;;;;;;;21.00;3.80;;;;;;;;;;4999586;28;20052;-68
2021/03/28 00:06:45;;;;;;;20.63;3.67;;;;;;;;;;4999455;28;20120;-66
2021/03/28 00:09:17;;;;;;;17.98;4.10;;;;;;;;;;5017296;28;20124;-67
2021/03/28 00:12:09;;;;;;;12.77;3.90;;;;;;;;;;5018258;28;20052;-67
2021/03/28 00:14:53;;;;;;;29.52;4.25;;;;;;;;;;4997477;28;20088;-67
2021/03/28 00:17:21;;;;;;;14.50;3.20;;;;;;;;;;5014445;28;20517;-67
2021/03/28 00:19:50;;;;;;;21.30;3.85;;;;;;;;;;5013496;28;20036;-66
2021/03/28 00:22:19;;;;;;;21.95;4.95;;;;;;;;;;5014595;28;20400;-67
2021/03/28 00:24:58;;;;;;;19.77;3.33;;;;;;;;;;5012993;28;20033;-65
2021/03/28 00:27:30;;;;;;;18.85;3.55;;;;;;;;;;5001457;28;20037;-65
2021/03/28 00:30:03;;;;;;;15.73;3.78;;;;;;;;;;5017629;28;20033;-66
2021/03/28 00:32:40;;;;;;;9.98;3.25;;;;;;;;;;5016338;28;20176;-66
2021/03/28 00:35:09;;;;;;;22.58;3.85;;;;;;;;;;4997946;28;20044;-65
2021/03/28 00:37:35;;;;;;;13.77;3.20;;;;;;;;;;5014944;28;20041;-66
2021/03/28 00:40:10;;;;;;;11.73;4.25;;;;;;;;;;5018771;28;20032;-66
2021/03/28 00:42:49;;;;;;;18.90;4.05;;;;;;;;;;5018702;28;20036;-68
2021/03/28 00:45:17;;;;;;;21.85;3.97;;;;;;;;;;5015867;28;20078;-66
2021/03/28 00:47:47;;;;;;;14.60;3.20;;;;;;;;;;5015028;28;20646;-66
2021/03/28 00:50:22;;;;;;;17.20;4.00;;;;;;;;;;4999258;28;20059;-66
2021/03/28 00:52:55;;;;;;;15.00;3.88;;;;;;;;;;5013006;28;20921;-65
2021/03/28 00:55:25;;;;;;;18.58;4.20;;;;;;;;;;5015224;28;20041;-66
2021/03/28 00:58:16;;;;;;;13.27;4.25;;;;;;;;;;5020270;28;21166;-66
2021/03/28 01:00:47;;;;;;;24.85;4.85;;;;;;;;;;5009995;28;20041;-67
2021/03/28 01:03:35;;;;;;;21.48;4.68;;;;;;;;;;5015278;28;20068;-66
2021/03/28 01:06:16;;;;;;;22.60;4.70;;;;;;;;;;5010041;28;20032;-66
2021/03/28 01:08:54;;;;;;;22.50;4.35;;;;;;;;;;5011991;28;20037;-66
2021/03/28 01:11:33;;;;;;;20.55;4.40;;;;;;;;;;5019210;28;20233;-65
2021/03/28 01:14:20;;;;;;;12.98;3.78;;;;;;;;;;5013780;28;20036;-66
2021/03/28 01:17:06;;;;;;;22.30;4.10;;;;;;;;;;5002928;28;20033;-66
2021/03/28 01:19:34;;;;;;;17.30;3.80;;;;;;;;;;5014383;28;20134;-66
2021/03/28 01:22:09;;;;;;;26.58;5.30;;;;;;;;;;5016115;28;20504;-66
2021/03/28 01:24:43;;;;;;;26.65;5.90;;;;;;;;;;5011768;28;20081;-66
2021/03/28 01:27:14;;;;;;;31.85;4.60;;;;;;;;;;5004641;28;20141;-66
2021/03/28 01:29:43;;;;;;;13.85;4.25;;;;;;;;;;5005238;28;20179;-67
2021/03/28 01:32:25;;;;;;;15.80;4.40;;;;;;;;;;5023129;28;20057;-66
2021/03/28 01:35:04;;;;;;;16.92;4.22;;;;;;;;;;5001589;28;20103;-65
2021/03/28 01:37:32;;;;;;;22.83;4.20;;;;;;;;;;5023350;28;20116;-66
2021/03/28 01:40:21;;;;;;;33.60;4.93;;;;;;;;;;5023604;28;20033;-66
2021/03/28 01:42:49;;;;;;;24.30;5.32;;;;;;;;;;5017141;28;20036;-65
2021/03/28 01:45:19;;;;;;;20.17;5.05;;;;;;;;;;5021756;28;20558;-65
2021/03/28 01:47:59;;;;;;;31.55;5.35;;;;;;;;;;5015593;28;20079;-65
2021/03/28 01:50:24;;;;;;;25.17;4.68;;;;;;;;;;5020113;28;20033;-65
2021/03/28 01:52:56;;;;;;;31.00;5.88;;;;;;;;;;5019149;28;20043;-65
2021/03/28 01:55:36;;;;;;;37.90;6.15;;;;;;;;;;5016280;28;20052;-66
2021/03/28 01:58:33;;;;;;;37.17;6.28;;;;;;;;;;5018716;28;22102;-65
2021/03/28 02:01:10;;;;;;;26.20;4.95;;;;;;;;;;4977391;28;20037;-65
2021/03/28 02:03:45;;;;;;;29.50;5.43;;;;;;;;;;5020279;28;20037;-66
2021/03/28 02:06:26;;;;;;;34.83;6.25;;;;;;;;;;5007870;28;20032;-66
2021/03/28 02:08:52;;;;;;;19.85;5.05;;;;;;;;;;5018972;28;20029;-65
2021/03/28 02:11:19;;;;;;;38.55;7.15;;;;;;;;;;5008257;28;20040;-67
2021/03/28 02:13:57;;;;;;;29.05;5.63;;;;;;;;;;5020553;28;20583;-65
2021/03/28 02:16:28;;;;;;;21.58;4.43;;;;;;;;;;5021645;28;20036;-66
2021/03/28 02:19:11;;;;;;;26.67;5.00;;;;;;;;;;5003058;28;20096;-66
2021/03/28 02:21:40;;;;;;;23.77;5.07;;;;;;;;;;5000885;28;20028;-66
2021/03/28 02:24:15;;;;;;;21.77;4.93;;;;;;;;;;5000479;28;20033;-66
2021/03/28 02:26:44;;;;;;;33.15;6.78;;;;;;;;;;5015447;28;20025;-65
2021/03/28 02:29:10;;;;;;;31.08;6.43;;;;;;;;;;4994781;28;20037;-66
2021/03/28 02:31:54;;;;;;;29.30;4.97;;;;;;;;;;5015897;28;21147;-67
2021/03/28 02:34:30;;;;;;;30.52;5.68;;;;;;;;;;5022810;28;20120;-66
2021/03/28 02:37:02;;;;;;;31.10;5.20;;;;;;;;;;5013880;28;20039;-66
2021/03/28 02:39:28;;;;;;;32.45;5.05;;;;;;;;;;5001394;28;20039;-65
2021/03/28 02:42:02;;;;;;;29.15;5.43;;;;;;;;;;5021685;28;20017;-66
2021/03/28 02:44:35;;;;;;;31.27;4.75;;;;;;;;;;5013137;28;20045;-66
2021/03/28 02:47:03;;;;;;;26.35;5.03;;;;;;;;;;5022849;28;20037;-66
2021/03/28 02:49:50;;;;;;;20.55;5.97;;;;;;;;;;5015407;28;20041;-66
2021/03/28 02:52:17;;;;;;;21.87;6.17;;;;;;;;;;5020333;28;20029;-66
2021/03/28 02:54:58;;;;;;;29.35;6.63;;;;;;;;;;5015932;28;20287;-65
2021/03/28 02:57:34;;;;;;;25.45;6.20;;;;;;;;;;5016129;28;20128;-66
2021/03/28 02:59:59;;;;;;;30.38;5.97;;;;;;;;;;5016165;28;20341;-65
2021/03/28 03:03:03;;;;;;;29.42;6.90;;;;;;;;;;5000961;28;20057;-66
2021/03/28 03:05:49;;;;;;;27.45;6.40;;;;;;;;;;4942819;28;20169;-65
2021/03/28 03:08:21;;;;;;;32.60;6.45;;;;;;;;;;4995622;28;20033;-65
2021/03/28 03:10:48;;;;;;;31.70;5.68;;;;;;;;;;5000136;28;20040;-65
2021/03/28 03:13:13;;;;;;;25.05;5.63;;;;;;;;;;5018492;28;20046;-64
2021/03/28 03:15:57;;;;;;;35.08;6.40;;;;;;;;;;5000876;28;20040;-66
2021/03/28 03:18:51;;;;;;;40.38;6.97;;;;;;;;;;5002751;28;20102;-66
2021/03/28 03:21:32;;;;;;;24.48;6.25;;;;;;;;;;5006896;28;20064;-65
2021/03/28 03:24:16;;;;;;;31.05;6.53;;;;;;;;;;5002553;28;20033;-64
2021/03/28 03:27:11;;;;;;;26.20;6.60;;;;;;;;;;5018268;28;20783;-65
2021/03/28 03:29:42;;;;;;;33.05;6.93;;;;;;;;;;5016162;28;20523;-66
2021/03/28 03:32:27;;;;;;;28.02;5.97;;;;;;;;;;5019120;28;20144;-66
2021/03/28 03:35:00;;;;;;;26.67;6.53;;;;;;;;;;5017325;28;20076;-66
2021/03/28 03:37:32;;;;;;;20.70;5.75;;;;;;;;;;5015793;28;20447;-66
2021/03/28 03:40:19;;;;;;;35.63;6.68;;;;;;;;;;5013718;28;20579;-66
2021/03/28 03:43:20;;;;;;;18.77;5.10;;;;;;;;;;5017616;28;20029;-65
2021/03/28 03:45:57;;;;;;;29.10;6.20;;;;;;;;;;4996653;28;20400;-64
2021/03/28 03:48:29;;;;;;;28.42;6.13;;;;;;;;;;5016866;28;20455;-67
2021/03/28 03:51:14;;;;;;;30.77;6.90;;;;;;;;;;5013412;28;20037;-66
2021/03/28 03:53:52;;;;;;;29.33;5.88;;;;;;;;;;5017874;28;20126;-65
2021/03/28 03:56:23;;;;;;;18.58;5.70;;;;;;;;;;5015893;28;20141;-65
2021/03/28 03:58:51;;;;;;;14.68;5.10;;;;;;;;;;5014807;28;20041;-65
2021/03/28 04:01:26;;;;;;;24.52;6.47;;;;;;;;;;5002313;28;20033;-65
2021/03/28 04:04:24;;;;;;;24.25;6.40;;;;;;;;;;5016150;28;20044;-66
2021/03/28 04:07:15;;;;;;;28.83;7.10;;;;;;;;;;4998234;28;20184;-69
2021/03/28 04:09:53;;;;;;;20.92;5.43;;;;;;;;;;4983940;28;20128;-66
2021/03/28 04:12:40;;;;;;;28.38;5.65;;;;;;;;;;5015643;28;20044;-65
2021/03/28 04:15:15;;;;;;;19.67;5.55;;;;;;;;;;5016040;28;20053;-65
2021/03/28 04:17:58;;;;;;;23.83;5.03;;;;;;;;;;4999545;28;20042;-64
2021/03/28 04:20:37;;;;;;;30.02;6.25;;;;;;;;;;5018374;28;20487;-66
2021/03/28 04:23:21;;;;;;;37.67;5.88;;;;;;;;;;5001724;28;20026;-64
2021/03/28 04:25:58;;;;;;;22.67;6.65;;;;;;;;;;5018249;28;20148;-65
2021/03/28 04:28:35;;;;;;;31.30;5.95;;;;;;;;;;5001840;28;20053;-65
2021/03/28 04:31:10;;;;;;;33.08;5.50;;;;;;;;;;5018697;28;20089;-66
2021/03/28 04:33:56;;;;;;;24.75;5.53;;;;;;;;;;5014961;28;20060;-66
2021/03/28 04:36:31;;;;;;;20.67;6.32;;;;;;;;;;5003849;28;20045;-65
2021/03/28 04:38:59;;;;;;;22.98;4.95;;;;;;;;;;5015363;28;20036;-64
2021/03/28 04:41:34;;;;;;;30.65;5.50;;;;;;;;;;5016012;28;20033;-67
2021/03/28 04:44:09;;;;;;;33.08;5.90;;;;;;;;;;5016405;28;20028;-67
2021/03/28 04:46:38;;;;;;;39.53;6.25;;;;;;;;;;5017412;28;20124;-66
2021/03/28 04:49:03;;;;;;;23.63;5.97;;;;;;;;;;5015653;28;20095;-66
2021/03/28 04:51:48;;;;;;;30.00;6.22;;;;;;;;;;5015190;28;20038;-65
2021/03/28 04:54:16;;;;;;;;;;;;;;;;;;5004487;28;20029;-65
2021/03/28 04:56:51;;;;;;;26.65;5.15;;;;;;;;;;5015153;28;19932;-66
2021/03/28 04:59:28;;;;;;;36.75;6.72;;;;;;;;;;5016208;28;20033;-66
2021/03/28 05:01:59;;;;;;;34.55;6.88;;;;;;;;;;5015184;28;20053;-65
2021/03/28 05:04:45;;;;;;;32.65;6.43;;;;;;;;;;5006202;28;20723;-66
2021/03/28 05:07:30;;;;;;;17.73;5.47;;;;;;;;;;5022863;28;20625;-66
2021/03/28 05:09:55;;;;;;;25.08;5.95;;;;;;;;;;5018139;28;20307;-65
2021/03/28 05:12:42;;;;;;;25.30;5.72;;;;;;;;;;5004069;28;20041;-65
2021/03/28 05:15:19;;;;;;;21.85;5.60;;;;;;;;;;5018742;28;20167;-66
2021/03/28 05:18:03;;;;;;;20.17;5.13;;;;;;;;;;4999472;28;21153;-66
2021/03/28 05:20:31;;;;;;;27.50;5.70;;;;;;;;;;5004917;28;20134;-66
2021/03/28 05:23:14;;;;;;;31.50;5.82;;;;;;;;;;5018761;28;20117;-65
2021/03/28 05:25:52;;;;;;;19.30;5.45;;;;;;;;;;5019889;28;20108;-64
2021/03/28 05:28:53;;;;;;;24.77;6.00;;;;;;;;;;5012829;28;20176;-65
2021/03/28 05:31:31;;;;;;;27.23;4.95;;;;;;;;;;4986040;28;20053;-67
2021/03/28 05:33:58;;;;;;;23.08;5.47;;;;;;;;;;5006465;28;20045;-65
2021/03/28 05:36:42;;;;;;;28.58;4.82;;;;;;;;;;5023191;28;20045;-65
2021/03/28 05:39:29;;;;;;;21.42;4.25;;;;;;;;;;5015775;28;20087;-64
2021/03/28 05:42:00;;;;;;;22.88;5.35;;;;;;;;;;5022709;28;20764;-64
2021/03/28 05:44:39;;;;;;;36.92;6.40;;;;;;;;;;5022709;28;20024;-65
2021/03/28 05:47:14;;;;;;;20.13;4.47;;;;;;;;;;5024210;28;20124;-66
2021/03/28 05:49:55;;;;;;;23.10;5.43;;;;;;;;;;5018390;28;20610;-62
2021/03/28 05:52:39;;;;;;;22.60;5.53;;;;;;;;;;5019029;28;20146;-66
2021/03/28 05:55:25;;;;;;;21.83;5.00;;;;;;;;;;5017818;28;20036;-65
2021/03/28 05:57:57;;;;;;;12.25;3.92;;;;;;;;;;5016271;28;20041;-66
2021/03/28 06:00:29;;;;;;;26.77;4.07;;;;;;;;;;5019364;28;20109;-65
2021/03/28 06:03:11;;;;;;;21.90;3.83;;;;;;;;;;5000871;28;22118;-66
2021/03/28 06:05:58;;;;;;;12.32;4.25;;;;;;;;;;5016851;28;20520;-66
2021/03/28 06:08:40;;;;;;;17.43;3.30;;;;;;;;;;5019695;28;20034;-66
2021/03/28 06:11:31;;;;;;;15.13;3.28;;;;;;;;;;5019159;28;21903;-66
2021/03/28 06:14:15;;;;;;;14.05;3.17;;;;;;;;;;5007918;28;20081;-66
2021/03/28 06:16:41;;;;;;;18.67;3.53;;;;;;;;;;5021480;28;20200;-65
2021/03/28 06:19:34;;;;;;;13.90;4.05;;;;;;;;;;5002752;28;20232;-64
2021/03/28 06:22:21;;;;;;;12.07;3.30;;;;;;;;;;5018940;28;20033;-65
2021/03/28 06:25:06;;;;;;;12.18;3.28;;;;;;;;;;5016650;28;20652;-64
2021/03/28 06:27:58;;;;;;;19.30;3.63;;;;;;;;;;5017173;28;20059;-65
2021/03/28 06:30:39;;;;;;;15.40;3.30;;;;;;;;;;5004262;28;20048;-64
2021/03/28 06:33:22;;;;;;;11.20;2.75;;;;;;;;;;5016100;28;20115;-66
2021/03/28 06:36:09;;;;;;;9.30;2.70;;;;;;;;;;5021532;28;20064;-64
2021/03/28 06:38:56;;;;;;;17.05;3.08;;;;;;;;;;5021210;28;20052;-64
2021/03/28 06:41:21;;;;;;;5.55;2.85;;;;;;;;;;5018554;28;20025;-65
2021/03/28 06:44:22;;;;;;;10.95;2.70;;;;;;;;;;5014560;28;20033;-64
2021/03/28 06:47:05;;;;;;;9.85;2.85;;;;;;;;;;4961729;28;20034;-64
2021/03/28 06:50:00;;;;;;;8.90;2.60;;;;;;;;;;5000106;28;20183;-64
2021/03/28 06:52:51;;;;;;;6.40;2.33;;;;;;;;;;5018063;28;20119;-64
2021/03/28 06:55:31;;;;;;;18.42;3.83;;;;;;;;;;5018133;28;20481;-64
2021/03/28 06:58:10;;;;;;;11.30;3.08;;;;;;;;;;5016831;28;20047;-64
2021/03/28 07:00:57;;;;;;;11.35;2.55;;;;;;;;;;5005686;28;20075;-64
2021/03/28 07:03:44;;;;;;;13.85;2.85;;;;;;;;;;5011589;28;20025;-64
2021/03/28 07:06:21;;;;;;;11.55;3.80;;;;;;;;;;5014879;28;20043;-63
2021/03/28 07:09:17;;;;;;;13.57;3.42;;;;;;;;;;5015599;28;20036;-63
2021/03/28 07:11:55;;;;;;;10.48;2.90;;;;;;;;;;5016626;28;20036;-64
2021/03/28 07:14:44;;;;;;;12.95;3.70;;;;;;;;;;5014459;28;20059;-67
2021/03/28 07:17:18;;;;;;;6.03;2.63;;;;;;;;;;4999240;28;20045;-64
2021/03/28 07:19:58;;;;;;;7.00;2.78;;;;;;;;;;5018951;28;20057;-64
2021/03/28 07:22:26;;;;;;;7.65;2.35;;;;;;;;;;4998676;28;20025;-66
2021/03/28 07:24:55;;;;;;;17.75;2.97;;;;;;;;;;5016122;28;21231;-64
2021/03/28 07:27:40;;;;;;;8.38;2.58;;;;;;;;;;5016290;28;20045;-67
2021/03/28 07:30:20;;;;;;;11.00;2.35;;;;;;;;;;5016085;28;20045;-66
2021/03/28 07:32:46;;;;;;;6.93;2.65;;;;;;;;;;5018153;28;20821;-64
2021/03/28 07:35:24;;;;;;;14.80;2.80;;;;;;;;;;5014697;28;20035;-65
2021/03/28 07:38:05;;;;;;;8.82;2.42;;;;;;;;;;5017184;28;20045;-64
2021/03/28 07:40:41;;;;;;;10.10;2.47;;;;;;;;;;4999355;28;20030;-63
2021/03/28 07:43:09;;;;;;;11.40;2.53;;;;;;;;;;5003057;28;20597;-64
2021/03/28 07:45:46;;;;;;;9.75;2.22;;;;;;;;;;5016152;28;20040;-66
2021/03/28 07:48:33;;;;;;;11.75;2.60;;;;;;;;;;5015684;28;20033;-66
2021/03/28 07:51:08;;;;;;;11.60;2.55;;;;;;;;;;5015813;28;20120;-64
2021/03/28 07:53:51;;;;;;;13.68;2.85;;;;;;;;;;5016253;28;20029;-64
2021/03/28 07:56:26;;;;;;;13.70;2.53;;;;;;;;;;5014736;28;20664;-64
2021/03/28 07:59:19;;;;;;;11.02;2.92;;;;;;;;;;5011451;28;20175;-64
2021/03/28 08:01:56;;;;;;;11.80;2.30;;;;;;;;;;5010978;28;20045;-65
2021/03/28 08:04:45;;;;;;;17.77;2.40;;;;;;;;;;5014111;28;20051;-63
2021/03/28 08:07:26;;;;;;;10.43;2.65;;;;;;;;;;4999729;28;20040;-63
2021/03/28 08:10:01;;;;;;;12.18;2.45;;;;;;;;;;5016280;28;21993;-65
2021/03/28 08:12:46;;;;;;;10.75;2.22;;;;;;;;;;5016529;28;20101;-64
2021/03/28 08:15:30;;;;;;;8.43;1.90;;;;;;;;;;5015523;28;20737;-64
2021/03/28 08:17:59;;;;;;;21.45;2.30;;;;;;;;;;5013810;28;20037;-63
2021/03/28 08:20:49;;;;;;;8.85;2.40;;;;;;;;;;5014178;28;21012;-65
2021/03/28 08:23:17;;;;;;;7.63;2.25;;;;;;;;;;5006162;28;20746;-63
2021/03/28 08:25:50;;;;;;;8.20;1.90;;;;;;;;;;5010992;28;20120;-63
2021/03/28 08:28:43;;;;;;;8.93;1.95;;;;;;;;;;5014232;28;20036;-65
2021/03/28 08:31:14;;;;;;;11.23;1.80;;;;;;;;;;5005147;28;20033;-64
2021/03/28 08:33:59;;;;;;;8.25;2.17;;;;;;;;;;5015257;28;20087;-64
2021/03/28 08:36:44;;;;;;;15.53;2.00;;;;;;;;;;5022259;28;20031;-66
2021/03/28 08:39:12;;;;;;;12.07;2.15;;;;;;;;;;5010761;28;20295;-65
2021/03/28 08:41:47;;;;;;;6.15;1.52;;;;;;;;;;5008846;28;20497;-64
2021/03/28 08:44:18;;;;;;;5.78;2.35;;;;;;;;;;5011270;28;20033;-66
2021/03/28 08:47:25;;;;;;;8.13;1.77;;;;;;;;;;5033798;28;20152;-64
2021/03/28 08:50:05;;;;;;;10.65;1.90;;;;;;;;;;5015047;28;20301;-64
2021/03/28 08:52:45;;;;;;;9.93;2.28;;;;;;;;;;5017607;28;20063;-64
2021/03/28 08:55:20;;;;;;;10.65;1.88;;;;;;;;;;5015458;28;20102;-63
2021/03/28 08:57:47;;;;;;;7.30;1.63;;;;;;;;;;5034453;28;20143;-65
2021/03/28 09:00:16;;;;;;;8.95;1.85;;;;;;;;;;5036585;28;20055;-62
2021/03/28 09:02:43;;;;;;;12.35;2.42;;;;;;;;;;5014955;28;21008;-63
2021/03/28 09:05:12;;;;;;;6.82;2.03;;;;;;;;;;5019779;28;20032;-63
2021/03/28 09:07:59;;;;;;;12.52;2.13;;;;;;;;;;5022103;28;20155;-64
2021/03/28 09:11:02;;;;;;;8.77;1.90;;;;;;;;;;5016972;28;20059;-65
2021/03/28 09:13:47;;;;;;;7.45;1.50;;;;;;;;;;4990122;28;20493;-65
2021/03/28 09:16:24;;;;;;;11.27;2.47;;;;;;;;;;5028765;28;20040;-63
2021/03/28 09:19:14;;;;;;;7.85;1.58;;;;;;;;;;5011080;28;20111;-63
2021/03/28 09:21:51;;;;;;;5.43;1.65;;;;;;;;;;5012565;28;20711;-65
2021/03/28 09:24:40;;;;;;;7.90;1.38;;;;;;;;;;4991946;28;20021;-63
2021/03/28 09:27:16;;;;;;;10.38;1.85;;;;;;;;;;5012776;28;20048;-66
2021/03/28 09:30:01;;;;;;;6.35;1.75;;;;;;;;;;5006791;28;20033;-63
2021/03/28 09:32:36;;;;;;;7.68;1.55;;;;;;;;;;5013572;28;20131;-64
2021/03/28 09:35:12;;;;;;;9.93;2.03;;;;;;;;;;5012528;28;20052;-64
2021/03/28 09:37:40;;;;;;;;;;;;;;;;;;5013634;28;20033;-63
2021/03/28 09:40:13;;;;;;;5.75;1.67;;;;;;;;;;5000475;28;20892;-64
2021/03/28 09:42:54;;;;;;;8.77;2.00;;;;;;;;;;5005311;28;20057;-62
2021/03/28 09:45:31;;;;;;;7.05;1.90;;;;;;;;;;4996271;28;20144;-63
2021/03/28 09:48:08;;;;;;;7.90;1.50;;;;;;;;;;4992692;28;21883;-63
2021/03/28 09:50:45;;;;;;;7.55;1.83;;;;;;;;;;5016711;28;20021;-61
2021/03/28 09:53:22;;;;;;;5.75;1.80;;;;;;;;;;5017471;28;20037;-65
2021/03/28 09:56:10;;;;;;;13.15;1.88;;;;;;;;;;5013373;28;20120;-61
2021/03/28 09:58:41;;;;;;;6.53;1.52;;;;;;;;;;5017748;28;20098;-64
2021/03/28 10:01:09;;;;;;;11.18;2.15;;;;;;;;;;5012227;28;20029;-65
2021/03/28 10:03:50;;;;;;;16.30;2.15;;;;;;;;;;4998318;28;20163;-65
2021/03/28 10:06:19;;;;;;;5.82;2.00;;;;;;;;;;5020650;28;20434;-63
2021/03/28 10:08:52;;;;;;;11.73;2.05;;;;;;;;;;5013583;28;20063;-62
2021/03/28 10:11:39;;;;;;;6.10;1.50;;;;;;;;;;5015876;28;20051;-62
2021/03/28 10:14:16;;;;;;;12.13;1.83;;;;;;;;;;5010108;28;20037;-63
2021/03/28 10:16:44;;;;;;;5.65;1.60;;;;;;;;;;4997822;28;20053;-62
2021/03/28 10:19:16;;;;;;;10.23;1.75;;;;;;;;;;5009358;28;20028;-64
2021/03/28 10:21:58;;;;;;;6.80;2.47;;;;;;;;;;5000772;28;20059;-62
2021/03/28 10:24:47;;;;;;;8.23;1.15;;;;;;;;;;5019104;28;20120;-61
2021/03/28 10:27:15;;;;;;;9.30;1.77;;;;;;;;;;5002086;28;20090;-61
2021/03/28 10:30:08;;;;;;;10.00;2.30;;;;;;;;;;5031911;28;20181;-64
2021/03/28 10:32:33;;;;;;;9.13;1.83;;;;;;;;;;5022526;28;20165;-63
2021/03/28 10:35:22;;;;;;;14.13;2.67;;;;;;;;;;5018191;28;20156;-63
2021/03/28 10:37:51;;;;;;;8.85;2.22;;;;;;;;;;5002927;28;20920;-63
2021/03/28 10:40:31;;;;;;;6.38;2.00;;;;;;;;;;5011772;28;20057;-63
2021/03/28 10:42:59;;;;;;;9.60;2.25;;;;;;;;;;5003739;28;20033;-65
2021/03/28 10:45:31;;;;;;;18.88;2.50;;;;;;;;;;5013653;28;20025;-65
2021/03/28 10:48:11;;;;;;;13.35;2.30;;;;;;;;;;5014787;28;20086;-64
2021/03/28 10:51:03;;;;;;;11.40;2.40;;;;;;;;;;5018700;28;20124;-65
2021/03/28 10:53:48;;;;;;;5.80;2.03;;;;;;;;;;5012203;28;20072;-66
2021/03/28 10:56:35;;;;;;;9.95;2.97;;;;;;;;;;5019304;28;20045;-65
2021/03/28 10:59:20;;;;;;;12.30;2.05;;;;;;;;;;5013602;28;20733;-66
2021/03/28 11:02:09;;;;;;;8.45;2.05;;;;;;;;;;5016311;28;20043;-68
2021/03/28 11:04:34;;;;;;;7.68;2.20;;;;;;;;;;5017762;28;20048;-67
2021/03/28 11:07:12;;;;;;;11.82;2.30;;;;;;;;;;5017721;28;20306;-66
2021/03/28 11:09:43;;;;;;;8.43;2.00;;;;;;;;;;5018290;28;20124;-66
2021/03/28 11:12:17;;;;;;;14.75;2.13;;;;;;;;;;5017546;28;20203;-70
2021/03/28 11:14:49;;;;;;;7.40;1.98;;;;;;;;;;5015756;28;20117;-66
2021/03/28 11:17:53;;;;;;;16.45;2.70;;;;;;;;;;5016715;28;20097;-66
2021/03/28 11:20:35;;;;;;;5.03;1.73;;;;;;;;;;4945820;28;20117;-66
2021/03/28 11:23:15;;;;;;;7.68;2.08;;;;;;;;;;4939712;28;20026;-65
2021/03/28 11:25:58;;;;;;;8.55;1.88;;;;;;;;;;4992933;28;20227;-66
2021/03/28 11:28:43;;;;;;;6.43;1.98;;;;;;;;;;5017018;28;20479;-66
2021/03/28 11:31:30;;;;;;;11.00;3.00;;;;;;;;;;5019389;28;20084;-68
2021/03/28 11:34:01;;;;;;;6.05;1.83;;;;;;;;;;5019316;28;20077;-65
2021/03/28 11:36:31;;;;;;;12.93;2.47;;;;;;;;;;5015933;28;20052;-66
2021/03/28 11:39:06;;;;;;;13.27;1.90;;;;;;;;;;5016965;28;20107;-64
2021/03/28 11:41:36;;;;;;;12.55;2.42;;;;;;;;;;5021279;28;20044;-68
2021/03/28 11:44:11;;;;;;;12.57;2.20;;;;;;;;;;5015080;28;20492;-65
2021/03/28 11:46:47;;;;;;;11.02;1.73;;;;;;;;;;5015208;28;20116;-65
2021/03/28 11:49:17;;;;;;;7.20;1.80;;;;;;;;;;5016001;28;20171;-65
2021/03/28 11:52:02;;;;;;;11.30;1.80;;;;;;;;;;5017612;28;20533;-65
2021/03/28 11:54:29;;;;;;;9.30;2.50;;;;;;;;;;5015432;28;20040;-65
2021/03/28 11:57:03;;;;;;;8.02;1.90;;;;;;;;;;5018045;28;20041;-67
2021/03/28 11:59:35;;;;;;;10.13;2.08;;;;;;;;;;5014202;28;20153;-64
2021/03/28 12:02:17;;;;;;;5.82;1.42;;;;;;;;;;5015121;28;20029;-61
2021/03/28 12:04:52;;;;;;;7.55;1.85;;;;;;;;;;5018578;28;20029;-62
2021/03/28 12:07:25;;;;;;;14.20;2.10;;;;;;;;;;5020783;28;20036;-60
2021/03/28 12:10:00;;;;;;;9.43;1.75;;;;;;;;;;5015038;28;20164;-64
2021/03/28 12:12:26;;;;;;;;;;;;;;;;;;5019352;28;20116;-60
2021/03/28 12:14:51;;;;;;;9.98;2.00;;;;;;;;;;5012846;28;19986;-65
2021/03/28 12:17:22;;;;;;;15.95;2.45;;;;;;;;;;5016276;28;20030;-60
2021/03/28 12:20:09;;;;;;;17.08;3.10;;;;;;;;;;5014545;28;20163;-61
2021/03/28 12:22:37;;;;;;;15.27;3.22;;;;;;;;;;5015711;28;22276;-61
2021/03/28 12:25:29;;;;;;;13.57;2.38;;;;;;;;;;5014528;28;20033;-61
2021/03/28 12:28:00;;;;;;;15.43;2.22;;;;;;;;;;5012368;28;20099;-61
2021/03/28 12:30:30;;;;;;;8.07;1.85;;;;;;;;;;5010915;28;20029;-62
2021/03/28 12:33:02;;;;;;;12.07;1.80;;;;;;;;;;5014860;28;21020;-63
2021/03/28 12:35:34;;;;;;;8.15;2.00;;;;;;;;;;5016046;28;20140;-63
2021/03/28 12:38:18;;;;;;;13.95;1.80;;;;;;;;;;5016395;28;20036;-63
2021/03/28 12:40:46;;;;;;;9.32;2.00;;;;;;;;;;5000697;28;20029;-62
2021/03/28 12:43:32;;;;;;;11.43;1.83;;;;;;;;;;5000925;28;20034;-63
2021/03/28 12:45:57;;;;;;;14.45;1.85;;;;;;;;;;5013726;28;20029;-62
2021/03/28 12:48:38;;;;;;;21.08;2.47;;;;;;;;;;5000818;28;20045;-65
2021/03/28 12:51:14;;;;;;;4.88;1.90;;;;;;;;;;4999404;28;20546;-64
2021/03/28 12:53:44;;;;;;;6.35;1.83;;;;;;;;;;5017124;28;20582;-61
2021/03/28 12:56:19;;;;;;;7.82;1.88;;;;;;;;;;5014462;28;20412;-65
2021/03/28 12:58:47;;;;;;;13.02;2.10;;;;;;;;;;5012527;28;20038;-64
2021/03/28 13:01:26;;;;;;;12.35;2.42;;;;;;;;;;5014952;28;20037;-62
2021/03/28 13:03:53;;;;;;;14.68;2.03;;;;;;;;;;5015896;28;20049;-63
2021/03/28 13:06:29;;;;;;;9.05;2.17;;;;;;;;;;5004872;28;20037;-64
2021/03/28 13:08:54;;;;;;;15.73;2.20;;;;;;;;;;5014994;28;20156;-66
2021/03/28 13:11:46;;;;;;;8.95;1.92;;;;;;;;;;5015135;28;20033;-62
2021/03/28 13:14:31;;;;;;;11.55;2.05;;;;;;;;;;5011595;28;20556;-63
2021/03/28 13:16:57;;;;;;;;;;;;;;;;;;5019453;28;20052;-62
2021/03/28 13:19:24;;;;;;;7.90;1.63;;;;;;;;;;5012139;28;19959;-64
2021/03/28 13:21:56;;;;;;;12.10;2.08;;;;;;;;;;5014045;28;20896;-66
2021/03/28 13:24:22;;;;;;;11.70;2.13;;;;;;;;;;5014962;28;20033;-63
2021/03/28 13:27:19;;;;;;;6.18;1.67;;;;;;;;;;5001334;28;20048;-63
2021/03/28 13:29:53;;;;;;;12.63;1.77;;;;;;;;;;5005312;28;20052;-63
2021/03/28 13:32:24;;;;;;;13.90;2.20;;;;;;;;;;5016796;28;20059;-62
2021/03/28 13:37:54;;;;;;;7.05;1.90;;;;;;;;;;5015491;28;20092;-60
2021/03/28 13:40:25;;;;;;;14.45;2.00;;;;;;;;;;5020476;28;20075;-59
2021/03/28 13:43:01;;;;;;;10.52;1.70;;;;;;;;;;5021450;28;20029;-61
2021/03/28 13:45:29;;;;;;;8.90;2.25;;;;;;;;;;5019901;28;20029;-59
2021/03/28 13:47:59;;;;;;;14.32;2.50;;;;;;;;;;5002466;28;20061;-60
2021/03/28 13:50:27;;;;;;;17.05;2.72;;;;;;;;;;5016527;28;20032;-60
2021/03/28 13:52:56;;;;;;;13.68;2.38;;;;;;;;;;5017757;28;20033;-63
2021/03/28 13:55:40;;;;;;;15.55;2.45;;;;;;;;;;5019608;28;20639;-60
2021/03/28 13:58:20;;;;;;;11.65;2.45;;;;;;;;;;5015407;28;20072;-60
2021/03/28 14:00:49;;;;;;;16.25;2.53;;;;;;;;;;5015449;28;20168;-62
2021/03/28 14:03:17;;;;;;;22.02;2.25;;;;;;;;;;5015605;28;20108;-61
2021/03/28 14:05:44;;;;;;;19.48;2.22;;;;;;;;;;5024234;28;20139;-61
2021/03/28 14:08:16;;;;;;;13.85;1.77;;;;;;;;;;5016398;28;20044;-59
2021/03/28 14:10:49;;;;;;;15.90;2.63;;;;;;;;;;5002825;28;20029;-60
2021/03/28 14:13:19;;;;;;;10.07;2.15;;;;;;;;;;5016689;28;20032;-60
2021/03/28 14:15:51;;;;;;;12.18;2.17;;;;;;;;;;5015956;28;20075;-59
2021/03/28 14:18:22;;;;;;;8.90;2.25;;;;;;;;;;5018412;28;20037;-61
2021/03/28 14:21:08;;;;;;;10.95;2.47;;;;;;;;;;5020536;28;21967;-60
2021/03/28 14:23:43;;;;;;;19.30;2.90;;;;;;;;;;5003224;28;20037;-61
2021/03/28 14:26:08;;;;;;;17.15;2.53;;;;;;;;;;5006220;28;20827;-62
2021/03/28 14:28:34;;;;;;;19.48;2.42;;;;;;;;;;5018588;28;20037;-61
2021/03/28 14:30:59;;;;;;;16.63;2.17;;;;;;;;;;5019782;28;20176;-60
2021/03/28 14:33:28;;;;;;;18.23;2.85;;;;;;;;;;5017296;28;20033;-59
2021/03/28 14:36:12;;;;;;;12.25;2.65;;;;;;;;;;5014000;28;20537;-59
2021/03/28 14:38:47;;;;;;;21.63;3.13;;;;;;;;;;5058841;28;20041;-60
2021/03/28 14:41:31;;;;;;;12.70;2.90;;;;;;;;;;5063216;28;20058;-59
2021/03/28 14:44:15;;;;;;;11.95;1.92;;;;;;;;;;5056654;28;20553;-62
2021/03/28 14:46:45;;;;;;;17.92;3.10;;;;;;;;;;5055448;28;20027;-61
2021/03/28 14:49:20;;;;;;;9.18;2.20;;;;;;;;;;5059397;28;22193;-60
2021/03/28 14:51:45;;;;;;;16.48;1.98;;;;;;;;;;5056088;28;20036;-60
2021/03/28 14:54:32;;;;;;;22.80;3.40;;;;;;;;;;5056697;28;20497;-60
2021/03/28 14:57:06;;;;;;;15.70;2.95;;;;;;;;;;5055699;28;20040;-61
2021/03/28 14:59:50;;;;;;;39.25;3.72;;;;;;;;;;5054209;28;20032;-60
2021/03/28 15:02:37;;;;;;;17.20;2.95;;;;;;;;;;5057377;28;20118;-60
2021/03/28 15:05:11;;;;;;;18.70;3.63;;;;;;;;;;5058355;28;20028;-58
2021/03/28 15:07:45;;;;;;;13.00;2.13;;;;;;;;;;5059994;28;20495;-59
2021/03/28 15:10:22;;;;;;;16.08;2.72;;;;;;;;;;5056945;28;20040;-59
2021/03/28 15:13:06;;;;;;;22.25;3.47;;;;;;;;;;5055439;28;20123;-59
2021/03/28 15:15:38;;;;;;;18.95;2.90;;;;;;;;;;5055379;28;20052;-59
2021/03/28 15:18:32;;;;;;;14.43;2.90;;;;;;;;;;5055286;28;20040;-58
2021/03/28 15:21:00;;;;;;;37.60;2.70;;;;;;;;;;5038444;28;20089;-60
2021/03/28 15:23:25;;;;;;;20.30;2.85;;;;;;;;;;5053562;28;20033;-61
2021/03/28 15:26:11;;;;;;;21.17;2.72;;;;;;;;;;5056239;28;20054;-60
2021/03/28 15:28:39;;;;;;;18.10;2.72;;;;;;;;;;5055709;28;20110;-60
2021/03/28 15:31:23;;;;;;;20.67;3.17;;;;;;;;;;5055709;28;20036;-60
2021/03/28 15:34:18;;;;;;;24.38;2.88;;;;;;;;;;5056424;28;20060;-61
2021/03/28 15:37:02;;;;;;;16.25;2.80;;;;;;;;;;5045382;28;20071;-59